createdAt,value
2023-04-10T00:00:05.223Z,100.00
2023-04-10T00:02:08.857Z,99.56
2023-04-10T00:04:14.601Z,99.58
2023-04-10T00:06:19.762Z,99.23
2023-04-10T00:08:25.169Z,99.27
2023-04-10T00:10:30.711Z,98.89
2023-04-10T00:12:34.480Z,98.47
2023-04-10T00:14:39.861Z,98.43
2023-04-10T00:16:43.233Z,98.06
2023-04-10T00:18:46.573Z,97.71
2023-04-10T00:20:49.975Z,97.63
2023-04-10T00:22:53.416Z,97.36
2023-04-10T00:24:56.780Z,97.02
2023-04-10T00:27:00.321Z,97.13
2023-04-10T00:29:04.010Z,96.62
2023-04-10T00:31:09.237Z,96.58
2023-04-10T00:33:12.821Z,96.81
2023-04-10T00:35:17.047Z,95.90
2023-04-10T00:37:20.289Z,96.05
2023-04-10T00:39:24.291Z,96.17
2023-04-10T00:41:29.711Z,96.18
2023-04-10T00:43:33.096Z,95.45
2023-04-10T00:45:36.539Z,95.80
2023-04-10T00:47:41.898Z,95.68
2023-04-10T00:49:45.524Z,95.52
2023-04-10T00:51:48.983Z,95.03
2023-04-10T00:53:53.311Z,95.36
2023-04-10T00:55:58.233Z,95.21
2023-04-10T00:58:01.657Z,95.14
2023-04-10T01:00:06.025Z,94.99
2023-04-10T01:02:10.446Z,94.67
2023-04-10T01:04:16.408Z,94.82
2023-04-10T01:06:28.289Z,94.54
2023-04-10T01:08:40.720Z,95.06
2023-04-10T01:10:49.885Z,94.79
2023-04-10T01:13:01.086Z,94.42
2023-04-10T01:15:08.118Z,94.49
2023-04-10T01:17:18.796Z,94.45
2023-04-10T01:19:34.089Z,94.93
2023-04-10T01:21:39.277Z,94.83
2023-04-10T01:24:04.880Z,94.92
2023-04-10T01:26:12.341Z,94.50
2023-04-10T01:28:45.807Z,94.78
2023-04-10T01:30:55.237Z,94.75
2023-04-10T01:33:02.000Z,94.77
2023-04-10T01:35:09.306Z,94.23
2023-04-10T01:37:17.860Z,94.55
2023-04-10T01:39:23.192Z,94.00
2023-04-10T01:41:27.853Z,94.12
2023-04-10T01:43:36.176Z,94.09
2023-04-10T01:45:41.849Z,93.66
2023-04-10T01:47:47.346Z,93.86
2023-04-10T01:49:51.854Z,93.48
2023-04-10T01:51:58.482Z,93.85
2023-04-10T01:54:06.992Z,93.77
2023-04-10T01:56:11.530Z,93.59
2023-04-10T01:58:21.732Z,93.41
2023-04-10T02:00:25.342Z,92.98
2023-04-10T02:02:32.495Z,92.94
2023-04-10T02:04:37.413Z,93.18
2023-04-10T02:06:51.490Z,92.86
2023-04-10T02:08:58.789Z,92.83
2023-04-10T02:11:09.098Z,92.82
2023-04-10T02:13:15.903Z,93.12
2023-04-10T02:15:21.142Z,92.93
2023-04-10T02:17:30.167Z,92.66
2023-04-10T02:19:35.856Z,92.61
2023-04-10T02:21:42.274Z,92.95
2023-04-10T02:23:45.827Z,92.84
2023-04-10T02:25:49.203Z,92.53
2023-04-10T02:27:52.708Z,92.98
2023-04-10T02:29:56.867Z,92.75
2023-04-10T02:32:02.137Z,92.93
2023-04-10T02:34:05.956Z,92.59
2023-04-10T02:36:10.417Z,93.01
2023-04-10T02:38:17.271Z,92.64
2023-04-10T02:40:21.662Z,92.55
2023-04-10T02:42:51.069Z,92.42
2023-04-10T02:44:54.371Z,92.27
2023-04-10T02:46:57.863Z,92.16
2023-04-10T02:49:01.731Z,92.26
2023-04-10T02:51:06.119Z,91.96
2023-04-10T02:53:09.375Z,92.34
2023-04-10T02:55:14.436Z,92.11
2023-04-10T02:57:18.453Z,92.45
2023-04-10T02:59:22.114Z,92.84
2023-04-10T03:01:25.796Z,92.77
2023-04-10T03:03:29.280Z,92.83
2023-04-10T03:05:33.304Z,93.09
2023-04-10T03:07:36.720Z,93.11
2023-04-10T03:09:40.162Z,93.08
2023-04-10T03:11:44.911Z,93.15
2023-04-10T03:13:49.109Z,93.05
2023-04-10T03:15:52.724Z,92.80
2023-04-10T03:17:56.792Z,92.60
2023-04-10T03:20:00.451Z,93.13
2023-04-10T03:22:04.103Z,93.55
2023-04-10T03:24:07.644Z,93.54
2023-04-10T03:26:11.188Z,93.37
2023-04-10T03:28:16.471Z,93.49
2023-04-10T03:30:19.767Z,93.61
2023-04-10T03:32:24.698Z,93.69
2023-04-10T03:34:28.280Z,93.54
2023-04-10T03:36:32.346Z,93.21
2023-04-10T03:38:35.956Z,93.21
2023-04-10T03:40:40.266Z,93.08
2023-04-10T03:42:46.641Z,93.16
2023-04-10T03:44:51.815Z,93.32
2023-04-10T03:46:56.469Z,93.20
2023-04-10T03:48:59.950Z,93.47
2023-04-10T03:51:04.386Z,93.12
2023-04-10T03:53:07.821Z,93.53
2023-04-10T03:55:11.469Z,93.03
2023-04-10T03:57:14.918Z,93.30
2023-04-10T03:59:18.167Z,93.46
2023-04-10T04:01:24.253Z,93.10
2023-04-10T04:03:42.411Z,93.67
2023-04-10T04:06:04.268Z,93.45
2023-04-10T04:08:14.097Z,93.46
2023-04-10T04:10:36.098Z,93.31
2023-04-10T04:12:52.829Z,93.31
2023-04-10T04:15:02.557Z,93.72
2023-04-10T04:17:25.131Z,94.01
2023-04-10T04:19:40.756Z,93.82
2023-04-10T04:21:54.687Z,93.82
2023-04-10T04:24:17.295Z,94.04
2023-04-10T04:26:36.181Z,94.15
2023-04-10T04:28:49.933Z,93.98
2023-04-10T04:31:12.266Z,93.55
2023-04-10T04:33:40.267Z,93.87
2023-04-10T04:36:02.301Z,94.34
2023-04-10T04:38:24.762Z,93.97
2023-04-10T04:40:57.848Z,93.92
2023-04-10T04:43:20.270Z,93.47
2023-04-10T04:45:41.671Z,94.16
2023-04-10T04:48:06.470Z,93.99
2023-04-10T04:50:30.258Z,94.23
2023-04-10T04:52:54.364Z,93.82
2023-04-10T04:55:10.687Z,94.68
2023-04-10T04:57:32.833Z,93.83
2023-04-10T04:59:55.684Z,93.78
2023-04-10T05:02:19.055Z,94.22
2023-04-10T05:04:43.894Z,94.42
2023-04-10T05:07:02.986Z,93.96
2023-04-10T05:09:20.444Z,94.22
2023-04-10T05:11:48.249Z,93.79
2023-04-10T05:14:10.388Z,93.25
2023-04-10T05:16:36.971Z,93.28
2023-04-10T05:19:09.876Z,93.19
2023-04-10T05:21:28.492Z,92.86
2023-04-10T05:23:43.881Z,93.50
2023-04-10T05:26:19.913Z,93.85
2023-04-10T05:28:42.054Z,93.61
2023-04-10T05:31:01.763Z,93.08
2023-04-10T05:33:26.221Z,93.90
2023-04-10T05:35:59.905Z,93.18
2023-04-10T05:38:13.486Z,93.95
2023-04-10T05:40:31.597Z,93.35
2023-04-10T05:42:53.865Z,93.35
2023-04-10T05:45:16.656Z,93.68
2023-04-10T05:47:38.951Z,93.52
2023-04-10T05:50:06.482Z,93.11
2023-04-10T05:52:28.758Z,93.54
2023-04-10T05:54:55.357Z,93.91
2023-04-10T05:57:19.282Z,93.58
2023-04-10T05:59:43.454Z,93.83
2023-04-10T06:02:09.915Z,93.81
2023-04-10T06:04:14.787Z,93.47
2023-04-10T06:06:20.851Z,93.51
2023-04-10T06:08:25.136Z,92.88
2023-04-10T06:10:31.104Z,92.70
2023-04-10T06:12:36.464Z,92.23
2023-04-10T06:14:42.007Z,91.45
2023-04-10T06:16:46.266Z,91.75
2023-04-10T06:18:53.105Z,92.14
2023-04-10T06:20:58.350Z,91.64
2023-04-10T06:23:02.227Z,91.19
2023-04-10T06:25:08.147Z,91.11
2023-04-10T06:27:12.761Z,90.45
2023-04-10T06:29:18.482Z,89.27
2023-04-10T06:31:23.675Z,86.79
2023-04-10T06:33:27.670Z,85.56
2023-04-10T06:35:31.615Z,85.76
2023-04-10T06:37:35.902Z,86.02
2023-04-10T06:39:41.632Z,86.39
2023-04-10T06:41:46.140Z,86.45
2023-04-10T06:44:02.587Z,86.96
2023-04-10T06:46:11.148Z,87.66
2023-04-10T06:48:15.352Z,88.28
2023-04-10T06:50:19.140Z,88.72
2023-04-10T06:52:22.841Z,89.13
2023-04-10T06:54:26.485Z,90.37
2023-04-10T06:56:30.008Z,90.77
2023-04-10T06:58:33.642Z,91.42
2023-04-10T07:00:37.174Z,91.54
2023-04-10T07:02:42.096Z,92.35
2023-04-10T07:04:45.843Z,92.09
2023-04-10T07:06:49.725Z,92.39
2023-04-10T07:08:53.768Z,92.57
2023-04-10T07:10:58.813Z,92.52
2023-04-10T07:13:03.426Z,92.19
2023-04-10T07:15:09.258Z,92.82
2023-04-10T07:17:13.764Z,92.48
2023-04-10T07:19:19.502Z,92.57
2023-04-10T07:21:23.436Z,92.88
2023-04-10T07:23:27.648Z,93.14
2023-04-10T07:25:31.792Z,93.07
2023-04-10T07:27:35.504Z,94.20
2023-04-10T07:29:39.170Z,94.86
2023-04-10T07:31:43.717Z,95.46
2023-04-10T07:33:48.755Z,97.53
2023-04-10T07:35:54.173Z,97.59
2023-04-10T07:37:58.775Z,98.14
2023-04-10T07:40:03.059Z,99.01
2023-04-10T07:42:07.634Z,98.90
2023-04-10T07:44:13.467Z,99.42
2023-04-10T07:46:18.199Z,100.00
2023-04-10T07:48:22.415Z,100.00
2023-04-10T07:50:26.794Z,100.00
2023-04-10T07:52:32.611Z,100.00
2023-04-10T07:54:37.898Z,100.00
2023-04-10T07:56:43.023Z,100.00
2023-04-10T07:58:47.107Z,100.00
2023-04-10T08:00:54.499Z,100.00
2023-04-10T08:02:58.790Z,100.00
2023-04-10T08:05:04.131Z,100.00
2023-04-10T08:07:08.542Z,100.00
2023-04-10T08:09:14.085Z,100.00
2023-04-10T08:11:26.368Z,100.00
2023-04-10T08:13:30.632Z,100.00
2023-04-10T08:15:35.079Z,100.00
2023-04-10T08:17:39.036Z,100.00
2023-04-10T08:19:43.674Z,100.00
2023-04-10T08:21:47.933Z,100.00
2023-04-10T08:23:52.528Z,100.00
2023-04-10T08:25:58.459Z,100.00
2023-04-10T08:28:02.578Z,100.00
2023-04-10T08:30:07.596Z,100.00
2023-04-10T08:32:11.448Z,100.00
2023-04-10T08:34:15.318Z,100.00
2023-04-10T08:36:20.342Z,100.00
2023-04-10T08:38:25.412Z,100.00
2023-04-10T08:40:29.532Z,100.00
2023-04-10T08:42:35.855Z,100.00
2023-04-10T08:44:40.126Z,100.00
2023-04-10T08:46:45.778Z,100.00
2023-04-10T08:48:55.351Z,100.00
2023-04-10T08:51:06.084Z,100.00
2023-04-10T08:53:12.891Z,100.00
2023-04-10T08:55:17.646Z,100.00
2023-04-10T08:57:23.206Z,100.00
2023-04-10T08:59:30.401Z,100.00
2023-04-10T09:01:35.189Z,100.00
2023-04-10T09:03:39.808Z,100.00
2023-04-10T09:05:43.958Z,100.00
2023-04-10T09:07:47.903Z,100.00
2023-04-10T09:09:51.682Z,100.00
2023-04-10T09:12:01.312Z,100.00
2023-04-10T09:14:05.500Z,100.00
2023-04-10T09:16:12.061Z,98.96
2023-04-10T09:18:16.000Z,97.42
2023-04-10T09:20:23.235Z,95.97
2023-04-10T09:22:33.738Z,94.37
2023-04-10T09:24:39.140Z,92.88
2023-04-10T09:26:43.905Z,91.32
2023-04-10T09:28:59.256Z,89.94
2023-04-10T09:31:03.172Z,87.19
2023-04-10T09:33:24.060Z,86.85
2023-04-10T09:35:38.380Z,87.15
2023-04-10T09:37:44.081Z,86.87
2023-04-10T09:39:48.691Z,87.58
2023-04-10T09:41:55.254Z,88.81
2023-04-10T09:44:09.029Z,85.57
2023-04-10T09:46:13.308Z,85.61
2023-04-10T09:48:17.717Z,84.53
2023-04-10T09:50:39.550Z,84.80
2023-04-10T09:52:46.217Z,82.92
2023-04-10T09:54:50.689Z,82.24
2023-04-10T09:56:55.892Z,81.17
2023-04-10T09:59:02.164Z,78.61
2023-04-10T10:01:07.211Z,76.26
2023-04-10T10:03:14.597Z,76.64
2023-04-10T10:05:19.012Z,78.65
2023-04-10T10:07:25.304Z,77.15
2023-04-10T10:09:30.431Z,77.47
2023-04-10T10:11:37.265Z,76.17
2023-04-10T10:13:49.809Z,76.68
2023-04-10T10:16:00.266Z,76.58
2023-04-10T10:18:09.599Z,77.00
2023-04-10T10:20:17.868Z,77.60
2023-04-10T10:22:24.971Z,78.45
2023-04-10T10:24:30.585Z,79.38
2023-04-10T10:26:36.947Z,79.60
2023-04-10T10:28:43.281Z,80.56
2023-04-10T10:30:48.975Z,79.79
2023-04-10T10:32:53.820Z,80.73
2023-04-10T10:34:59.034Z,79.74
2023-04-10T10:37:04.255Z,78.58
2023-04-10T10:39:26.550Z,77.26
2023-04-10T10:41:38.703Z,76.69
2023-04-10T10:43:52.578Z,74.60
2023-04-10T10:46:02.546Z,76.04
2023-04-10T10:48:07.332Z,76.77
2023-04-10T10:50:11.119Z,76.29
2023-04-10T10:52:15.477Z,76.19
2023-04-10T10:54:34.939Z,75.29
2023-04-10T10:56:39.221Z,75.32
2023-04-10T10:58:50.603Z,74.95
2023-04-10T11:01:10.625Z,74.44
2023-04-10T11:03:30.020Z,74.93
2023-04-10T11:05:56.559Z,74.65
2023-04-10T11:08:10.709Z,74.53
2023-04-10T11:10:16.634Z,75.03
2023-04-10T11:12:23.485Z,75.42
2023-04-10T11:14:28.748Z,74.85
2023-04-10T11:16:47.345Z,73.83
2023-04-10T11:19:13.915Z,74.07
2023-04-10T11:21:19.379Z,73.70
2023-04-10T11:23:24.381Z,73.51
2023-04-10T11:25:49.622Z,73.16
2023-04-10T11:27:54.697Z,72.46
2023-04-10T11:29:58.808Z,72.75
2023-04-10T11:32:04.374Z,71.19
2023-04-10T11:34:10.746Z,71.62
2023-04-10T11:36:17.787Z,68.91
2023-04-10T11:38:21.806Z,68.21
2023-04-10T11:40:25.953Z,68.67
2023-04-10T11:42:31.758Z,70.78
2023-04-10T11:44:36.796Z,74.30
2023-04-10T11:46:41.004Z,77.04
2023-04-10T11:48:45.278Z,79.90
2023-04-10T11:50:49.624Z,82.65
2023-04-10T11:52:57.232Z,85.36
2023-04-10T11:55:01.555Z,87.15
2023-04-10T11:57:07.412Z,89.28
2023-04-10T11:59:14.925Z,89.80
2023-04-10T12:01:23.569Z,91.21
2023-04-10T12:03:39.195Z,91.40
2023-04-10T12:05:49.005Z,92.73
2023-04-10T12:07:53.799Z,94.17
2023-04-10T12:09:59.445Z,94.20
2023-04-10T12:12:05.172Z,93.77
2023-04-10T12:14:09.407Z,95.21
2023-04-10T12:16:15.951Z,95.22
2023-04-10T12:18:20.427Z,95.94
2023-04-10T12:20:27.980Z,96.27
2023-04-10T12:22:32.491Z,97.10
2023-04-10T12:24:46.055Z,97.64
2023-04-10T12:26:51.430Z,96.65
2023-04-10T12:28:57.903Z,97.18
2023-04-10T12:31:04.087Z,97.24
2023-04-10T12:33:10.077Z,96.94
2023-04-10T12:35:14.551Z,96.43
2023-04-10T12:37:19.006Z,96.60
2023-04-10T12:39:27.337Z,96.62
2023-04-10T12:41:33.665Z,95.67
2023-04-10T12:43:39.540Z,95.21
2023-04-10T12:45:44.053Z,95.05
2023-04-10T12:47:52.151Z,94.81
2023-04-10T12:50:08.582Z,93.54
2023-04-10T12:52:13.434Z,92.54
2023-04-10T12:54:31.777Z,91.18
2023-04-10T12:56:44.165Z,89.96
2023-04-10T12:58:48.448Z,89.89
2023-04-10T13:00:53.084Z,89.86
2023-04-10T13:02:57.831Z,89.14
2023-04-10T13:05:02.340Z,87.10
2023-04-10T13:07:08.481Z,86.49
2023-04-10T13:09:13.464Z,85.98
2023-04-10T13:11:17.178Z,86.31
2023-04-10T13:13:22.044Z,85.45
2023-04-10T13:15:26.281Z,84.83
2023-04-10T13:17:30.611Z,84.56
2023-04-10T13:19:34.865Z,84.78
2023-04-10T13:21:38.931Z,82.88
2023-04-10T13:23:44.567Z,82.13
2023-04-10T13:25:49.429Z,82.01
2023-04-10T13:27:53.585Z,81.66
2023-04-10T13:29:57.776Z,80.61
2023-04-10T13:32:02.025Z,80.76
2023-04-10T13:34:06.566Z,78.40
2023-04-10T13:36:11.162Z,78.49
2023-04-10T13:38:16.087Z,76.92
2023-04-10T13:40:22.028Z,76.08
2023-04-10T13:42:26.413Z,74.76
2023-04-10T13:44:30.345Z,75.02
2023-04-10T13:46:33.967Z,74.66
2023-04-10T13:48:41.439Z,74.11
2023-04-10T13:50:45.130Z,72.03
2023-04-10T13:52:48.790Z,72.01
2023-04-10T13:54:52.627Z,71.19
2023-04-10T13:56:57.905Z,72.27
2023-04-10T13:59:01.631Z,72.75
2023-04-10T14:01:06.967Z,73.31
2023-04-10T14:03:12.590Z,73.28
2023-04-10T14:05:16.980Z,73.04
2023-04-10T14:07:21.062Z,72.03
2023-04-10T14:09:24.863Z,72.40
2023-04-10T14:11:28.574Z,71.75
2023-04-10T14:13:33.979Z,72.96
2023-04-10T14:15:37.981Z,74.80
2023-04-10T14:17:41.874Z,76.54
2023-04-10T14:19:46.715Z,78.30
2023-04-10T14:21:50.553Z,80.85
2023-04-10T14:23:54.573Z,81.36
2023-04-10T14:25:59.404Z,83.23
2023-04-10T14:28:03.263Z,84.49
2023-04-10T14:30:10.508Z,84.99
2023-04-10T14:32:14.900Z,86.39
2023-04-10T14:34:19.172Z,85.53
2023-04-10T14:36:23.082Z,86.06
2023-04-10T14:38:26.914Z,85.88
2023-04-10T14:40:30.995Z,85.62
2023-04-10T14:42:35.619Z,84.79
2023-04-10T14:44:40.092Z,84.58
2023-04-10T14:46:46.184Z,84.11
2023-04-10T14:48:50.359Z,84.02
2023-04-10T14:50:55.129Z,83.35
2023-04-10T14:53:00.548Z,82.61
2023-04-10T14:55:04.611Z,82.62
2023-04-10T14:57:08.756Z,81.14
2023-04-10T14:59:13.218Z,78.35
2023-04-10T15:01:19.125Z,77.84
2023-04-10T15:03:25.430Z,76.99
2023-04-10T15:05:30.070Z,76.69
2023-04-10T15:07:33.793Z,76.72
2023-04-10T15:09:37.620Z,76.23
2023-04-10T15:11:41.324Z,76.75
2023-04-10T15:13:44.914Z,77.43
2023-04-10T15:15:49.337Z,77.22
2023-04-10T15:17:53.626Z,77.23
2023-04-10T15:19:59.023Z,76.97
2023-04-10T15:22:02.790Z,77.10
2023-04-10T15:24:07.012Z,76.17
2023-04-10T15:26:14.726Z,76.36
2023-04-10T15:28:18.599Z,76.73
2023-04-10T15:30:22.428Z,76.65
2023-04-10T15:32:26.339Z,76.08
2023-04-10T15:34:30.229Z,75.85
2023-04-10T15:36:35.472Z,75.62
2023-04-10T15:38:39.528Z,75.33
2023-04-10T15:40:43.282Z,75.94
2023-04-10T15:42:47.039Z,76.06
2023-04-10T15:44:50.829Z,76.67
2023-04-10T15:46:55.864Z,76.81
2023-04-10T15:48:59.381Z,76.49
2023-04-10T15:51:06.295Z,77.43
2023-04-10T15:53:11.930Z,77.59
2023-04-10T15:55:16.757Z,76.34
2023-04-10T15:57:20.312Z,76.12
2023-04-10T15:59:25.477Z,76.49
2023-04-10T16:01:29.196Z,76.65
2023-04-10T16:03:33.724Z,77.04
2023-04-10T16:05:38.603Z,75.73
2023-04-10T16:07:44.081Z,71.93
2023-04-10T16:09:49.759Z,69.78
2023-04-10T16:11:53.842Z,69.62
2023-04-10T16:13:58.082Z,69.92
2023-04-10T16:16:02.947Z,70.38
2023-04-10T16:18:08.162Z,71.50
2023-04-10T16:20:12.310Z,72.01
2023-04-10T16:22:16.178Z,73.65
2023-04-10T16:24:20.447Z,74.62
2023-04-10T16:26:26.222Z,74.88
2023-04-10T16:28:30.076Z,75.18
2023-04-10T16:30:34.253Z,75.05
2023-04-10T16:32:38.317Z,75.46
2023-04-10T16:34:42.577Z,76.42
2023-04-10T16:36:46.706Z,77.04
2023-04-10T16:38:50.867Z,77.68
2023-04-10T16:40:54.738Z,77.63
2023-04-10T16:43:02.246Z,78.84
2023-04-10T16:45:08.799Z,81.76
2023-04-10T16:47:12.842Z,85.45
2023-04-10T16:49:18.075Z,87.43
2023-04-10T16:51:22.671Z,90.31
2023-04-10T16:53:27.891Z,92.42
2023-04-10T16:55:33.045Z,94.79
2023-04-10T16:57:37.378Z,96.56
2023-04-10T16:59:44.017Z,97.29
2023-04-10T17:01:48.425Z,97.39
2023-04-10T17:03:53.952Z,97.48
2023-04-10T17:05:58.627Z,97.50
2023-04-10T17:08:02.705Z,97.17
2023-04-10T17:10:08.183Z,96.23
2023-04-10T17:12:12.727Z,94.95
2023-04-10T17:14:16.499Z,93.53
2023-04-10T17:16:21.685Z,92.45
2023-04-10T17:18:25.522Z,90.29
2023-04-10T17:20:31.407Z,89.61
2023-04-10T17:22:35.292Z,88.05
2023-04-10T17:24:39.069Z,87.53
2023-04-10T17:26:43.340Z,86.09
2023-04-10T17:28:47.618Z,84.74
2023-04-10T17:30:51.977Z,84.08
2023-04-10T17:32:57.401Z,83.53
2023-04-10T17:35:01.261Z,83.58
2023-04-10T17:37:05.379Z,83.54
2023-04-10T17:39:09.220Z,84.40
2023-04-10T17:41:16.419Z,84.20
2023-04-10T17:43:20.279Z,83.65
2023-04-10T17:45:24.097Z,83.63
2023-04-10T17:47:28.126Z,82.94
2023-04-10T17:49:34.201Z,83.35
2023-04-10T17:51:39.260Z,82.97
2023-04-10T17:53:48.454Z,82.71
2023-04-10T17:55:52.547Z,82.76
2023-04-10T17:57:58.367Z,82.63
2023-04-10T18:00:02.508Z,81.88
2023-04-10T18:02:08.953Z,82.70
2023-04-10T18:04:13.640Z,82.07
2023-04-10T18:06:19.636Z,82.06
2023-04-10T18:08:23.855Z,82.69
2023-04-10T18:10:28.690Z,82.54
2023-04-10T18:12:33.084Z,82.18
2023-04-10T18:14:37.792Z,83.10
2023-04-10T18:16:42.543Z,83.42
2023-04-10T18:18:47.071Z,83.98
2023-04-10T18:20:52.575Z,85.27
2023-04-10T18:22:59.046Z,85.97
2023-04-10T18:25:04.811Z,86.54
2023-04-10T18:27:09.149Z,86.90
2023-04-10T18:29:14.383Z,86.88
2023-04-10T18:31:20.058Z,86.38
2023-04-10T18:33:25.522Z,85.55
2023-04-10T18:35:32.967Z,84.78
2023-04-10T18:37:38.184Z,84.44
2023-04-10T18:39:43.721Z,84.08
2023-04-10T18:41:48.411Z,84.59
2023-04-10T18:44:03.589Z,84.20
2023-04-10T18:46:09.331Z,83.99
2023-04-10T18:48:13.275Z,83.94
2023-04-10T18:50:17.953Z,83.84
2023-04-10T18:52:21.795Z,83.95
2023-04-10T18:54:27.643Z,84.25
2023-04-10T18:56:33.069Z,84.17
2023-04-10T18:58:37.212Z,84.42
2023-04-10T19:00:40.840Z,84.14
2023-04-10T19:02:44.904Z,85.20
2023-04-10T19:04:48.889Z,85.45
2023-04-10T19:06:53.058Z,86.82
2023-04-10T19:08:57.199Z,88.57
2023-04-10T19:11:01.232Z,90.62
2023-04-10T19:13:07.742Z,91.96
2023-04-10T19:15:13.980Z,93.17
2023-04-10T19:17:18.161Z,93.92
2023-04-10T19:19:21.895Z,94.42
2023-04-10T19:21:27.805Z,95.48
2023-04-10T19:23:32.788Z,95.92
2023-04-10T19:25:36.480Z,96.26
2023-04-10T19:27:40.630Z,95.97
2023-04-10T19:29:46.355Z,96.71
2023-04-10T19:31:50.206Z,96.95
2023-04-10T19:33:54.692Z,96.86
2023-04-10T19:35:59.438Z,96.56
2023-04-10T19:38:03.434Z,96.48
2023-04-10T19:40:08.310Z,95.99
2023-04-10T19:42:13.734Z,95.38
2023-04-10T19:44:20.674Z,94.50
2023-04-10T19:46:25.910Z,94.35
2023-04-10T19:48:29.930Z,93.62
2023-04-10T19:50:34.170Z,93.45
2023-04-10T19:52:38.300Z,92.90
2023-04-10T19:54:42.565Z,92.32
2023-04-10T19:56:46.936Z,92.17
2023-04-10T19:58:51.539Z,91.85
2023-04-10T20:00:56.727Z,92.05
2023-04-10T20:03:02.719Z,92.03
2023-04-10T20:05:08.165Z,91.98
2023-04-10T20:07:12.407Z,92.37
2023-04-10T20:09:18.008Z,92.82
2023-04-10T20:11:22.458Z,93.79
2023-04-10T20:13:27.726Z,93.99
2023-04-10T20:15:33.057Z,94.28
2023-04-10T20:17:38.798Z,93.95
2023-04-10T20:19:46.060Z,94.63
2023-04-10T20:21:50.842Z,94.85
2023-04-10T20:23:57.961Z,94.96
2023-04-10T20:26:02.293Z,95.00
2023-04-10T20:28:06.805Z,95.00
2023-04-10T20:30:13.350Z,95.19
2023-04-10T20:32:17.407Z,94.43
2023-04-10T20:34:21.694Z,94.17
2023-04-10T20:36:26.606Z,93.93
2023-04-10T20:38:30.474Z,93.50
2023-04-10T20:40:34.280Z,92.63
2023-04-10T20:42:37.887Z,92.58
2023-04-10T20:44:41.837Z,92.11
2023-04-10T20:46:45.675Z,91.57
2023-04-10T20:48:50.391Z,91.27
2023-04-10T20:50:54.312Z,90.52
2023-04-10T20:52:59.612Z,90.01
2023-04-10T20:55:04.095Z,89.31
2023-04-10T20:57:07.968Z,89.10
2023-04-10T20:59:11.776Z,88.72
2023-04-10T21:01:15.743Z,88.97
2023-04-10T21:03:20.083Z,88.68
2023-04-10T21:05:24.468Z,88.82
2023-04-10T21:07:29.600Z,88.61
2023-04-10T21:09:34.905Z,88.45
2023-04-10T21:11:38.671Z,88.25
2023-04-10T21:13:42.532Z,88.05
2023-04-10T21:15:46.363Z,88.66
2023-04-10T21:17:50.554Z,88.72
2023-04-10T21:19:54.619Z,87.63
2023-04-10T21:21:58.824Z,87.23
2023-04-10T21:24:02.528Z,87.46
2023-04-10T21:26:08.651Z,87.22
2023-04-10T21:28:12.444Z,87.12
2023-04-10T21:30:16.419Z,87.40
2023-04-10T21:32:20.647Z,87.16
2023-04-10T21:34:25.533Z,87.41
2023-04-10T21:36:29.505Z,87.51
2023-04-10T21:38:33.994Z,87.50
2023-04-10T21:40:37.942Z,87.84
2023-04-10T21:42:43.231Z,87.77
2023-04-10T21:44:47.009Z,88.21
2023-04-10T21:46:50.837Z,88.04
2023-04-10T21:48:54.994Z,87.75
2023-04-10T21:50:59.063Z,87.94
2023-04-10T21:53:02.913Z,88.37
2023-04-10T21:55:09.458Z,88.15
2023-04-10T21:57:13.353Z,88.53
2023-04-10T21:59:18.471Z,88.70
2023-04-10T22:01:21.716Z,88.69
2023-04-10T22:03:27.473Z,88.96
2023-04-10T22:05:31.951Z,88.44
2023-04-10T22:07:35.839Z,88.66
2023-04-10T22:09:39.437Z,88.85
2023-04-10T22:11:43.357Z,89.13
2023-04-10T22:13:47.100Z,89.20
2023-04-10T22:15:52.424Z,89.11
2023-04-10T22:17:56.294Z,89.12
2023-04-10T22:19:59.846Z,89.18
2023-04-10T22:22:03.381Z,89.02
2023-04-10T22:24:07.551Z,88.90
2023-04-10T22:26:11.358Z,88.79
2023-04-10T22:28:15.140Z,88.47
2023-04-10T22:30:19.235Z,88.18
2023-04-10T22:32:24.342Z,87.97
2023-04-10T22:34:27.833Z,87.85
2023-04-10T22:36:34.079Z,87.23
2023-04-10T22:38:37.806Z,86.79
2023-04-10T22:40:41.541Z,86.87
2023-04-10T22:42:45.749Z,86.92
2023-04-10T22:44:49.904Z,86.65
2023-04-10T22:46:53.623Z,86.51
2023-04-10T22:48:58.765Z,86.40
2023-04-10T22:51:02.164Z,86.42
2023-04-10T22:53:05.987Z,86.28
2023-04-10T22:55:10.517Z,86.56
2023-04-10T22:57:14.196Z,86.33
2023-04-10T22:59:18.691Z,86.21
2023-04-10T23:01:22.567Z,85.86
2023-04-10T23:03:26.242Z,85.98
2023-04-10T23:05:33.196Z,85.69
2023-04-10T23:07:36.845Z,85.51
2023-04-10T23:09:40.645Z,85.22
2023-04-10T23:11:46.228Z,85.18
2023-04-10T23:13:50.295Z,85.12
2023-04-10T23:15:55.550Z,85.08
2023-04-10T23:17:59.194Z,85.17
2023-04-10T23:20:02.908Z,85.15
2023-04-10T23:22:08.154Z,84.95
2023-04-10T23:24:11.833Z,85.31
2023-04-10T23:26:15.542Z,84.93
2023-04-10T23:28:19.314Z,85.13
2023-04-10T23:30:23.193Z,85.65
2023-04-10T23:32:26.900Z,85.35
2023-04-10T23:34:30.633Z,85.58
2023-04-10T23:36:34.370Z,86.21
2023-04-10T23:38:39.485Z,86.49
2023-04-10T23:40:43.215Z,86.59
2023-04-10T23:42:47.356Z,87.14
2023-04-10T23:44:50.871Z,87.32
2023-04-10T23:46:54.686Z,88.05
2023-04-10T23:48:58.335Z,88.03
2023-04-10T23:51:06.530Z,88.08
2023-04-10T23:53:10.896Z,87.95
2023-04-10T23:55:17.339Z,87.92
2023-04-10T23:57:20.941Z,88.71
2023-04-10T23:59:24.617Z,88.93
